sensor_id;sensor_type;location;lat;lon;timestamp;pressure;altitude;pressure_sealevel;temperature;humidity
22440;BME280;11387;51.612;7.210;2023-03-16T00:01:05;101092.19;;;1.42;70.00
22440;BME280;11387;51.612;7.210;2023-03-16T00:03:34;101079.22;;;1.50;70.18
22440;BME280;11387;51.612;7.210;2023-03-16T00:06:05;101089.25;;;1.43;70.10
22440;BME280;11387;51.612;7.210;2023-03-16T00:08:33;101087.91;;;1.34;70.68
22440;BME280;11387;51.612;7.210;2023-03-16T00:11:04;101087.16;;;1.27;70.86
22440;BME280;11387;51.612;7.210;2023-03-16T00:13:32;101082.09;;;1.19;71.22
22440;BME280;11387;51.612;7.210;2023-03-16T00:16:01;101081.63;;;1.04;72.28
22440;BME280;11387;51.612;7.210;2023-03-16T00:18:31;101076.41;;;1.09;71.87
22440;BME280;11387;51.612;7.210;2023-03-16T00:21:06;101071.25;;;1.07;72.15
22440;BME280;11387;51.612;7.210;2023-03-16T00:23:35;101066.06;;;1.06;72.30
22440;BME280;11387;51.612;7.210;2023-03-16T00:26:05;101073.47;;;1.10;72.30
22440;BME280;11387;51.612;7.210;2023-03-16T00:28:35;101062.19;;;1.20;71.52
22440;BME280;11387;51.612;7.210;2023-03-16T00:31:05;101066.53;;;1.21;71.37
22440;BME280;11387;51.612;7.210;2023-03-16T00:33:34;101071.91;;;1.21;71.50
22440;BME280;11387;51.612;7.210;2023-03-16T00:36:05;101071.97;;;1.32;71.02
22440;BME280;11387;51.612;7.210;2023-03-16T00:38:38;101074.13;;;1.42;70.10
22440;BME280;11387;51.612;7.210;2023-03-16T00:41:13;101072.03;;;1.44;69.95
22440;BME280;11387;51.612;7.210;2023-03-16T00:43:43;101071.25;;;1.55;69.31
22440;BME280;11387;51.612;7.210;2023-03-16T00:46:14;101064.41;;;1.71;68.74
22440;BME280;11387;51.612;7.210;2023-03-16T00:48:45;101057.22;;;1.65;69.09
22440;BME280;11387;51.612;7.210;2023-03-16T00:51:16;101058.91;;;1.78;68.27
22440;BME280;11387;51.612;7.210;2023-03-16T00:53:46;101069.03;;;1.82;68.53
22440;BME280;11387;51.612;7.210;2023-03-16T00:56:15;101063.84;;;1.81;68.42
22440;BME280;11387;51.612;7.210;2023-03-16T00:58:44;101078.84;;;1.77;68.16
22440;BME280;11387;51.612;7.210;2023-03-16T01:01:14;101077.06;;;1.71;68.51
22440;BME280;11387;51.612;7.210;2023-03-16T01:03:43;101088.44;;;1.73;68.61
22440;BME280;11387;51.612;7.210;2023-03-16T01:06:14;101089.41;;;1.78;68.57
22440;BME280;11387;51.612;7.210;2023-03-16T01:08:43;101092.94;;;1.79;68.50
22440;BME280;11387;51.612;7.210;2023-03-16T01:11:15;101078.91;;;2.00;67.74
22440;BME280;11387;51.612;7.210;2023-03-16T01:13:44;101067.97;;;1.95;67.66
22440;BME280;11387;51.612;7.210;2023-03-16T01:16:14;101074.09;;;2.02;67.36
22440;BME280;11387;51.612;7.210;2023-03-16T01:18:43;101071.03;;;1.98;67.57
22440;BME280;11387;51.612;7.210;2023-03-16T01:21:11;101066.47;;;1.99;68.14
22440;BME280;11387;51.612;7.210;2023-03-16T01:23:41;101054.66;;;2.12;67.62
22440;BME280;11387;51.612;7.210;2023-03-16T01:26:10;101053.50;;;2.31;66.41
22440;BME280;11387;51.612;7.210;2023-03-16T01:28:40;101044.81;;;2.29;66.48
22440;BME280;11387;51.612;7.210;2023-03-16T01:31:11;101047.88;;;2.32;66.01
22440;BME280;11387;51.612;7.210;2023-03-16T01:33:42;101035.09;;;2.40;65.95
22440;BME280;11387;51.612;7.210;2023-03-16T01:36:14;101036.72;;;2.41;66.31
22440;BME280;11387;51.612;7.210;2023-03-16T01:38:43;101030.84;;;2.44;66.33
22440;BME280;11387;51.612;7.210;2023-03-16T01:41:12;101024.25;;;2.51;66.08
22440;BME280;11387;51.612;7.210;2023-03-16T01:43:42;101014.88;;;2.54;65.26
22440;BME280;11387;51.612;7.210;2023-03-16T01:46:16;101013.22;;;2.64;65.41
22440;BME280;11387;51.612;7.210;2023-03-16T01:48:54;101000.31;;;2.55;65.83
22440;BME280;11387;51.612;7.210;2023-03-16T01:51:27;101006.88;;;2.59;65.42
22440;BME280;11387;51.612;7.210;2023-03-16T01:53:58;101013.81;;;2.66;65.46
22440;BME280;11387;51.612;7.210;2023-03-16T01:56:32;101014.28;;;2.63;65.79
22440;BME280;11387;51.612;7.210;2023-03-16T01:59:06;101013.94;;;2.72;65.05
22440;BME280;11387;51.612;7.210;2023-03-16T02:01:37;101009.69;;;2.64;65.54
22440;BME280;11387;51.612;7.210;2023-03-16T02:04:16;101009.22;;;2.67;65.79
22440;BME280;11387;51.612;7.210;2023-03-16T02:06:51;100991.84;;;2.63;64.88
22440;BME280;11387;51.612;7.210;2023-03-16T02:09:23;100975.75;;;2.68;65.16
22440;BME280;11387;51.612;7.210;2023-03-16T02:11:52;100973.75;;;2.75;64.86
22440;BME280;11387;51.612;7.210;2023-03-16T02:14:24;100982.81;;;2.69;65.16
22440;BME280;11387;51.612;7.210;2023-03-16T02:16:53;100992.31;;;2.60;65.18
22440;BME280;11387;51.612;7.210;2023-03-16T02:19:33;100990.78;;;2.52;65.18
22440;BME280;11387;51.612;7.210;2023-03-16T02:22:06;100989.84;;;2.58;65.17
22440;BME280;11387;51.612;7.210;2023-03-16T02:24:36;100977.97;;;2.71;64.65
22440;BME280;11387;51.612;7.210;2023-03-16T02:27:06;100967.31;;;2.64;64.38
22440;BME280;11387;51.612;7.210;2023-03-16T02:29:55;100973.53;;;2.53;64.91
22440;BME280;11387;51.612;7.210;2023-03-16T02:32:27;100964.13;;;2.56;64.85
22440;BME280;11387;51.612;7.210;2023-03-16T02:34:58;100946.28;;;2.55;64.58
22440;BME280;11387;51.612;7.210;2023-03-16T02:37:27;100951.22;;;2.58;64.33
22440;BME280;11387;51.612;7.210;2023-03-16T02:39:56;100947.22;;;2.60;64.02
22440;BME280;11387;51.612;7.210;2023-03-16T02:42:25;100954.97;;;2.57;64.13
22440;BME280;11387;51.612;7.210;2023-03-16T02:44:57;100950.63;;;2.56;64.54
22440;BME280;11387;51.612;7.210;2023-03-16T02:47:33;100961.19;;;2.57;64.03
22440;BME280;11387;51.612;7.210;2023-03-16T02:50:03;100952.38;;;2.62;63.32
22440;BME280;11387;51.612;7.210;2023-03-16T02:52:33;100961.44;;;2.56;63.85
22440;BME280;11387;51.612;7.210;2023-03-16T02:55:02;100959.44;;;2.51;63.76
22440;BME280;11387;51.612;7.210;2023-03-16T02:57:31;100962.63;;;2.48;64.09
22440;BME280;11387;51.612;7.210;2023-03-16T03:00:03;100951.69;;;2.55;63.48
22440;BME280;11387;51.612;7.210;2023-03-16T03:02:37;100949.00;;;2.55;62.97
22440;BME280;11387;51.612;7.210;2023-03-16T03:05:06;100937.13;;;2.56;63.15
22440;BME280;11387;51.612;7.210;2023-03-16T03:07:35;100933.38;;;2.57;62.64
22440;BME280;11387;51.612;7.210;2023-03-16T03:10:04;100929.13;;;2.61;63.27
22440;BME280;11387;51.612;7.210;2023-03-16T03:12:33;100932.06;;;2.59;62.79
22440;BME280;11387;51.612;7.210;2023-03-16T03:15:04;100929.13;;;2.61;62.16
22440;BME280;11387;51.612;7.210;2023-03-16T03:17:33;100932.06;;;2.59;62.76
22440;BME280;11387;51.612;7.210;2023-03-16T03:20:04;100927.13;;;2.68;61.90
22440;BME280;11387;51.612;7.210;2023-03-16T03:22:40;100929.97;;;2.61;62.16
22440;BME280;11387;51.612;7.210;2023-03-16T03:25:08;100922.69;;;2.62;62.20
22440;BME280;11387;51.612;7.210;2023-03-16T03:27:37;100920.66;;;2.69;61.74
22440;BME280;11387;51.612;7.210;2023-03-16T03:30:08;100908.41;;;2.78;61.41
22440;BME280;11387;51.612;7.210;2023-03-16T03:32:37;100920.38;;;2.82;61.57
22440;BME280;11387;51.612;7.210;2023-03-16T03:35:06;100923.47;;;2.74;61.52
22440;BME280;11387;51.612;7.210;2023-03-16T03:37:35;100919.38;;;2.72;62.03
22440;BME280;11387;51.612;7.210;2023-03-16T03:40:04;100919.22;;;2.78;61.42
22440;BME280;11387;51.612;7.210;2023-03-16T03:42:33;100925.19;;;2.80;61.85
22440;BME280;11387;51.612;7.210;2023-03-16T03:45:01;100922.97;;;2.77;61.68
22440;BME280;11387;51.612;7.210;2023-03-16T03:47:32;100925.78;;;2.82;61.38
22440;BME280;11387;51.612;7.210;2023-03-16T03:50:00;100913.81;;;2.78;61.31
22440;BME280;11387;51.612;7.210;2023-03-16T03:52:29;100914.97;;;2.82;61.65
22440;BME280;11387;51.612;7.210;2023-03-16T03:54:57;100911.06;;;2.90;61.25
22440;BME280;11387;51.612;7.210;2023-03-16T03:57:26;100909.56;;;2.82;61.85
22440;BME280;11387;51.612;7.210;2023-03-16T03:59:54;100899.72;;;2.76;61.54
22440;BME280;11387;51.612;7.210;2023-03-16T04:02:22;100897.59;;;2.78;61.90
22440;BME280;11387;51.612;7.210;2023-03-16T04:04:52;100905.13;;;2.76;62.25
22440;BME280;11387;51.612;7.210;2023-03-16T04:07:21;100901.94;;;2.79;61.61
22440;BME280;11387;51.612;7.210;2023-03-16T04:09:49;100901.75;;;2.69;62.02
22440;BME280;11387;51.612;7.210;2023-03-16T04:12:18;100899.28;;;2.67;62.41
22440;BME280;11387;51.612;7.210;2023-03-16T04:14:50;100907.94;;;2.81;62.47
22440;BME280;11387;51.612;7.210;2023-03-16T04:17:22;100893.50;;;2.76;62.70
22440;BME280;11387;51.612;7.210;2023-03-16T04:19:52;100888.84;;;2.71;62.61
22440;BME280;11387;51.612;7.210;2023-03-16T04:22:21;100882.22;;;2.79;62.69
22440;BME280;11387;51.612;7.210;2023-03-16T04:24:50;100882.44;;;2.77;62.00
22440;BME280;11387;51.612;7.210;2023-03-16T04:27:19;100888.66;;;2.78;62.09
22440;BME280;11387;51.612;7.210;2023-03-16T04:29:47;100885.16;;;2.77;62.82
22440;BME280;11387;51.612;7.210;2023-03-16T04:32:16;100880.44;;;2.84;62.46
22440;BME280;11387;51.612;7.210;2023-03-16T04:34:44;100875.75;;;2.80;62.53
22440;BME280;11387;51.612;7.210;2023-03-16T04:37:15;100871.25;;;2.85;61.82
22440;BME280;11387;51.612;7.210;2023-03-16T04:39:44;100876.31;;;2.82;62.27
22440;BME280;11387;51.612;7.210;2023-03-16T04:42:12;100863.78;;;2.76;62.46
22440;BME280;11387;51.612;7.210;2023-03-16T04:44:41;100868.13;;;2.77;62.75
22440;BME280;11387;51.612;7.210;2023-03-16T04:47:11;100867.03;;;2.89;62.06
22440;BME280;11387;51.612;7.210;2023-03-16T04:49:40;100858.81;;;2.84;62.57
22440;BME280;11387;51.612;7.210;2023-03-16T04:52:08;100849.84;;;2.95;61.98
22440;BME280;11387;51.612;7.210;2023-03-16T04:54:38;100860.31;;;2.92;62.60
22440;BME280;11387;51.612;7.210;2023-03-16T04:57:07;100854.19;;;2.96;62.26
22440;BME280;11387;51.612;7.210;2023-03-16T04:59:35;100855.44;;;3.06;62.23
22440;BME280;11387;51.612;7.210;2023-03-16T05:02:04;100860.50;;;3.02;62.32
22440;BME280;11387;51.612;7.210;2023-03-16T05:04:32;100857.72;;;3.14;61.80
22440;BME280;11387;51.612;7.210;2023-03-16T05:07:01;100852.16;;;3.03;62.11
22440;BME280;11387;51.612;7.210;2023-03-16T05:09:30;100854.88;;;3.03;62.37
22440;BME280;11387;51.612;7.210;2023-03-16T05:12:00;100853.28;;;3.08;62.92
22440;BME280;11387;51.612;7.210;2023-03-16T05:14:28;100853.22;;;3.02;62.70
22440;BME280;11387;51.612;7.210;2023-03-16T05:16:57;100849.53;;;3.09;62.94
22440;BME280;11387;51.612;7.210;2023-03-16T05:19:25;100847.72;;;3.14;62.43
22440;BME280;11387;51.612;7.210;2023-03-16T05:21:54;100852.81;;;3.11;63.10
22440;BME280;11387;51.612;7.210;2023-03-16T05:24:23;100852.03;;;3.27;62.19
22440;BME280;11387;51.612;7.210;2023-03-16T05:26:51;100851.53;;;3.30;62.54
22440;BME280;11387;51.612;7.210;2023-03-16T05:29:21;100844.16;;;3.42;62.30
22440;BME280;11387;51.612;7.210;2023-03-16T05:31:49;100841.53;;;3.47;62.14
22440;BME280;11387;51.612;7.210;2023-03-16T05:34:18;100838.50;;;3.44;62.40
22440;BME280;11387;51.612;7.210;2023-03-16T05:36:47;100849.06;;;3.45;62.29
22440;BME280;11387;51.612;7.210;2023-03-16T05:39:15;100845.06;;;3.48;62.33
22440;BME280;11387;51.612;7.210;2023-03-16T05:41:44;100842.50;;;3.41;62.60
22440;BME280;11387;51.612;7.210;2023-03-16T05:44:12;100841.53;;;3.47;62.84
22440;BME280;11387;51.612;7.210;2023-03-16T05:46:42;100841.38;;;3.54;62.28
22440;BME280;11387;51.612;7.210;2023-03-16T05:49:12;100848.75;;;3.58;62.60
22440;BME280;11387;51.612;7.210;2023-03-16T05:51:40;100848.41;;;3.55;62.78
22440;BME280;11387;51.612;7.210;2023-03-16T05:54:09;100847.19;;;3.62;62.13
22440;BME280;11387;51.612;7.210;2023-03-16T05:56:38;100855.75;;;3.76;62.10
22440;BME280;11387;51.612;7.210;2023-03-16T05:59:07;100859.78;;;3.73;62.23
22440;BME280;11387;51.612;7.210;2023-03-16T06:01:39;100863.88;;;3.76;62.57
22440;BME280;11387;51.612;7.210;2023-03-16T06:04:10;100859.88;;;3.79;62.28
22440;BME280;11387;51.612;7.210;2023-03-16T06:06:38;100849.69;;;3.86;62.23
22440;BME280;11387;51.612;7.210;2023-03-16T06:09:08;100857.31;;;3.89;61.95
22440;BME280;11387;51.612;7.210;2023-03-16T06:11:36;100860.47;;;4.02;61.48
22440;BME280;11387;51.612;7.210;2023-03-16T06:14:09;100859.63;;;3.97;61.67
22440;BME280;11387;51.612;7.210;2023-03-16T06:16:39;100853.75;;;4.05;61.26
22440;BME280;11387;51.612;7.210;2023-03-16T06:19:14;100839.38;;;4.04;61.40
22440;BME280;11387;51.612;7.210;2023-03-16T06:21:42;100865.47;;;4.11;60.82
22440;BME280;11387;51.612;7.210;2023-03-16T06:24:10;100856.28;;;4.12;60.53
22440;BME280;11387;51.612;7.210;2023-03-16T06:26:43;100851.84;;;4.22;60.54
22440;BME280;11387;51.612;7.210;2023-03-16T06:29:11;100850.69;;;4.18;60.41
22440;BME280;11387;51.612;7.210;2023-03-16T06:31:40;100854.91;;;4.31;60.10
22440;BME280;11387;51.612;7.210;2023-03-16T06:34:08;100857.84;;;4.29;59.81
22440;BME280;11387;51.612;7.210;2023-03-16T06:36:39;100843.81;;;4.32;59.62
22440;BME280;11387;51.612;7.210;2023-03-16T06:39:07;100853.66;;;4.38;59.86
22440;BME280;11387;51.612;7.210;2023-03-16T06:41:35;100846.41;;;4.44;59.26
22440;BME280;11387;51.612;7.210;2023-03-16T06:44:04;100856.41;;;4.44;59.55
22440;BME280;11387;51.612;7.210;2023-03-16T06:46:33;100853.72;;;4.44;59.42
22440;BME280;11387;51.612;7.210;2023-03-16T06:49:01;100844.59;;;4.50;58.95
22440;BME280;11387;51.612;7.210;2023-03-16T06:51:30;100843.16;;;4.69;58.36
22440;BME280;11387;51.612;7.210;2023-03-16T06:54:00;100858.47;;;4.80;58.21
22440;BME280;11387;51.612;7.210;2023-03-16T06:56:29;100856.72;;;4.96;57.38
22440;BME280;11387;51.612;7.210;2023-03-16T06:58:58;100847.91;;;5.05;57.17
22440;BME280;11387;51.612;7.210;2023-03-16T07:01:26;100859.16;;;5.19;56.62
22440;BME280;11387;51.612;7.210;2023-03-16T07:03:55;100853.94;;;5.13;56.70
22440;BME280;11387;51.612;7.210;2023-03-16T07:06:24;100852.41;;;5.27;56.40
22440;BME280;11387;51.612;7.210;2023-03-16T07:08:52;100843.56;;;5.36;55.75
22440;BME280;11387;51.612;7.210;2023-03-16T07:11:22;100852.25;;;5.38;55.85
22440;BME280;11387;51.612;7.210;2023-03-16T07:13:50;100846.53;;;5.35;56.01
22440;BME280;11387;51.612;7.210;2023-03-16T07:16:19;100880.88;;;4.97;56.57
22440;BME280;11387;51.612;7.210;2023-03-16T07:18:48;100863.66;;;5.08;56.53
22440;BME280;11387;51.612;7.210;2023-03-16T07:21:16;100865.59;;;5.13;56.42
22440;BME280;11387;51.612;7.210;2023-03-16T07:23:45;100874.50;;;5.08;55.99
22440;BME280;11387;51.612;7.210;2023-03-16T07:26:16;100871.41;;;5.27;55.27
22440;BME280;11387;51.612;7.210;2023-03-16T07:28:46;100864.91;;;5.28;55.77
22440;BME280;11387;51.612;7.210;2023-03-16T07:31:14;100861.78;;;5.41;55.33
22440;BME280;11387;51.612;7.210;2023-03-16T07:33:43;100861.53;;;5.80;54.63
22440;BME280;11387;51.612;7.210;2023-03-16T07:36:11;100861.13;;;5.98;53.87
22440;BME280;11387;51.612;7.210;2023-03-16T07:38:41;100858.16;;;5.99;53.75
22440;BME280;11387;51.612;7.210;2023-03-16T07:41:09;100855.09;;;6.33;52.27
22440;BME280;11387;51.612;7.210;2023-03-16T07:43:38;100867.81;;;6.95;51.13
22440;BME280;11387;51.612;7.210;2023-03-16T07:46:07;100867.53;;;7.06;50.41
22440;BME280;11387;51.612;7.210;2023-03-16T07:48:40;100859.38;;;6.91;50.82
22440;BME280;11387;51.612;7.210;2023-03-16T07:51:09;100871.06;;;6.97;49.93
22440;BME280;11387;51.612;7.210;2023-03-16T07:53:38;100853.56;;;6.57;51.34
22440;BME280;11387;51.612;7.210;2023-03-16T07:56:07;100864.13;;;6.54;51.40
22440;BME280;11387;51.612;7.210;2023-03-16T07:58:36;100871.84;;;6.72;50.75
22440;BME280;11387;51.612;7.210;2023-03-16T08:01:04;100852.88;;;7.02;50.56
22440;BME280;11387;51.612;7.210;2023-03-16T08:03:36;100859.44;;;7.62;49.21
22440;BME280;11387;51.612;7.210;2023-03-16T08:06:05;100859.41;;;7.01;49.54
22440;BME280;11387;51.612;7.210;2023-03-16T08:08:34;100853.19;;;7.31;49.74
22440;BME280;11387;51.612;7.210;2023-03-16T08:11:02;100846.31;;;7.95;47.89
22440;BME280;11387;51.612;7.210;2023-03-16T08:13:31;100848.72;;;8.17;47.15
22440;BME280;11387;51.612;7.210;2023-03-16T08:16:01;100841.44;;;7.82;47.79
22440;BME280;11387;51.612;7.210;2023-03-16T08:18:31;100844.47;;;7.55;47.94
22440;BME280;11387;51.612;7.210;2023-03-16T08:21:02;100835.38;;;8.05;47.49
22440;BME280;11387;51.612;7.210;2023-03-16T08:23:31;100847.97;;;7.81;47.72
22440;BME280;11387;51.612;7.210;2023-03-16T08:26:00;100842.28;;;7.62;48.16
22440;BME280;11387;51.612;7.210;2023-03-16T08:28:29;100845.78;;;7.67;47.87
22440;BME280;11387;51.612;7.210;2023-03-16T08:30:58;100842.47;;;7.96;47.87
22440;BME280;11387;51.612;7.210;2023-03-16T08:33:27;100848.44;;;8.18;47.58
22440;BME280;11387;51.612;7.210;2023-03-16T08:35:55;100843.56;;;8.00;48.07
22440;BME280;11387;51.612;7.210;2023-03-16T08:38:26;100852.84;;;7.99;47.98
22440;BME280;11387;51.612;7.210;2023-03-16T08:40:58;100854.25;;;7.35;48.98
22440;BME280;11387;51.612;7.210;2023-03-16T08:43:27;100843.59;;;7.08;49.36
22440;BME280;11387;51.612;7.210;2023-03-16T08:45:55;100860.78;;;7.34;49.67
22440;BME280;11387;51.612;7.210;2023-03-16T08:48:25;100852.06;;;7.17;49.33
22440;BME280;11387;51.612;7.210;2023-03-16T08:50:53;100875.66;;;6.81;50.53
22440;BME280;11387;51.612;7.210;2023-03-16T08:53:22;100857.75;;;7.10;50.18
22440;BME280;11387;51.612;7.210;2023-03-16T08:55:52;100852.34;;;7.21;50.24
22440;BME280;11387;51.612;7.210;2023-03-16T08:58:20;100863.97;;;6.86;50.64
22440;BME280;11387;51.612;7.210;2023-03-16T09:00:49;100871.50;;;6.58;51.41
22440;BME280;11387;51.612;7.210;2023-03-16T09:03:18;100863.56;;;6.47;51.05
22440;BME280;11387;51.612;7.210;2023-03-16T09:05:46;100860.03;;;6.51;51.45
22440;BME280;11387;51.612;7.210;2023-03-16T09:08:15;100863.84;;;6.50;51.44
22440;BME280;11387;51.612;7.210;2023-03-16T09:10:44;100870.59;;;6.37;51.99
22440;BME280;11387;51.612;7.210;2023-03-16T09:13:14;100880.34;;;6.33;51.45
22440;BME280;11387;51.612;7.210;2023-03-16T09:15:43;100886.09;;;6.37;51.88
22440;BME280;11387;51.612;7.210;2023-03-16T09:18:11;100867.63;;;6.44;52.15
22440;BME280;11387;51.612;7.210;2023-03-16T09:20:40;100876.94;;;6.58;51.55
22440;BME280;11387;51.612;7.210;2023-03-16T09:23:08;100862.50;;;6.53;51.79
22440;BME280;11387;51.612;7.210;2023-03-16T09:25:39;100863.94;;;6.70;51.78
22440;BME280;11387;51.612;7.210;2023-03-16T09:28:08;100857.97;;;6.79;51.30
22440;BME280;11387;51.612;7.210;2023-03-16T09:30:38;100871.03;;;6.82;51.63
22440;BME280;11387;51.612;7.210;2023-03-16T09:33:07;100867.81;;;6.95;51.33
22440;BME280;11387;51.612;7.210;2023-03-16T09:35:36;100861.50;;;6.79;51.15
22440;BME280;11387;51.612;7.210;2023-03-16T09:38:05;100866.94;;;6.84;51.08
22440;BME280;11387;51.612;7.210;2023-03-16T09:40:35;100867.75;;;6.69;51.24
22440;BME280;11387;51.612;7.210;2023-03-16T09:43:17;100850.44;;;7.16;50.38
22440;BME280;11387;51.612;7.210;2023-03-16T09:45:58;100857.81;;;7.61;49.78
22440;BME280;11387;51.612;7.210;2023-03-16T09:48:34;100851.44;;;8.17;47.85
22440;BME280;11387;51.612;7.210;2023-03-16T09:51:05;100847.84;;;8.36;47.39
22440;BME280;11387;51.612;7.210;2023-03-16T09:53:38;100846.09;;;8.66;46.91
22440;BME280;11387;51.612;7.210;2023-03-16T09:56:10;100863.66;;;8.39;46.96
22440;BME280;11387;51.612;7.210;2023-03-16T09:58:39;100847.94;;;7.96;48.13
22440;BME280;11387;51.612;7.210;2023-03-16T10:01:13;100850.66;;;8.01;48.39
22440;BME280;11387;51.612;7.210;2023-03-16T10:04:08;100860.50;;;7.87;48.03
22440;BME280;11387;51.612;7.210;2023-03-16T10:06:47;100847.44;;;7.84;48.95
22440;BME280;11387;51.612;7.210;2023-03-16T10:09:29;100834.25;;;8.21;48.23
22440;BME280;11387;51.612;7.210;2023-03-16T10:12:01;100850.59;;;8.36;47.59
22440;BME280;11387;51.612;7.210;2023-03-16T10:14:37;100852.38;;;8.66;47.69
22440;BME280;11387;51.612;7.210;2023-03-16T10:17:13;100836.13;;;8.36;47.73
22440;BME280;11387;51.612;7.210;2023-03-16T10:19:47;100850.66;;;8.01;49.27
22440;BME280;11387;51.612;7.210;2023-03-16T10:22:20;100840.88;;;7.95;49.45
22440;BME280;11387;51.612;7.210;2023-03-16T10:24:57;100840.22;;;8.38;48.46
22440;BME280;11387;51.612;7.210;2023-03-16T10:27:30;100832.41;;;8.01;49.62
22440;BME280;11387;51.612;7.210;2023-03-16T10:30:02;100835.44;;;7.69;50.85
22440;BME280;11387;51.612;7.210;2023-03-16T10:32:35;100834.63;;;7.84;50.95
22440;BME280;11387;51.612;7.210;2023-03-16T10:35:10;100843.03;;;8.03;50.50
22440;BME280;11387;51.612;7.210;2023-03-16T10:37:42;100835.38;;;8.10;50.16
22440;BME280;11387;51.612;7.210;2023-03-16T10:40:13;100846.28;;;8.05;50.02
22440;BME280;11387;51.612;7.210;2023-03-16T10:42:42;100836.22;;;8.00;50.31
22440;BME280;11387;51.612;7.210;2023-03-16T10:45:22;100835.91;;;8.22;50.29
22440;BME280;11387;51.612;7.210;2023-03-16T10:47:53;100830.16;;;8.24;50.29
22440;BME280;11387;51.612;7.210;2023-03-16T10:50:32;100830.69;;;8.36;50.21
22440;BME280;11387;51.612;7.210;2023-03-16T10:53:01;100831.31;;;8.02;50.88
22440;BME280;11387;51.612;7.210;2023-03-16T10:55:39;100817.94;;;8.16;50.27
22440;BME280;11387;51.612;7.210;2023-03-16T10:58:08;100810.84;;;8.10;51.20
22440;BME280;11387;51.612;7.210;2023-03-16T11:00:41;100797.03;;;7.81;52.35
22440;BME280;11387;51.612;7.210;2023-03-16T11:03:20;100797.78;;;8.12;51.58
22440;BME280;11387;51.612;7.210;2023-03-16T11:05:58;100781.88;;;8.29;51.14
22440;BME280;11387;51.612;7.210;2023-03-16T11:08:31;100782.31;;;8.57;50.25
22440;BME280;11387;51.612;7.210;2023-03-16T11:11:07;100779.84;;;8.60;49.99
22440;BME280;11387;51.612;7.210;2023-03-16T11:13:43;100767.72;;;8.27;51.35
22440;BME280;11387;51.612;7.210;2023-03-16T11:16:23;100766.94;;;8.22;51.22
22440;BME280;11387;51.612;7.210;2023-03-16T11:18:56;100766.97;;;8.17;50.69
22440;BME280;11387;51.612;7.210;2023-03-16T11:21:36;100776.44;;;8.34;50.99
22440;BME280;11387;51.612;7.210;2023-03-16T11:24:14;100770.59;;;8.56;50.75
22440;BME280;11387;51.612;7.210;2023-03-16T11:26:47;100769.13;;;8.74;50.35
22440;BME280;11387;51.612;7.210;2023-03-16T11:29:26;100766.75;;;9.01;49.50
22440;BME280;11387;51.612;7.210;2023-03-16T11:31:59;100761.38;;;8.91;49.80
22440;BME280;11387;51.612;7.210;2023-03-16T11:34:33;100751.41;;;9.10;49.55
22440;BME280;11387;51.612;7.210;2023-03-16T11:37:10;100738.53;;;9.45;48.60
22440;BME280;11387;51.612;7.210;2023-03-16T11:39:50;100741.84;;;10.13;46.72
22440;BME280;11387;51.612;7.210;2023-03-16T11:42:28;100739.94;;;11.27;44.46
22440;BME280;11387;51.612;7.210;2023-03-16T11:45:07;100728.41;;;11.43;43.47
22440;BME280;11387;51.612;7.210;2023-03-16T11:50:43;100724.19;;;12.06;42.29
22440;BME280;11387;51.612;7.210;2023-03-16T11:53:22;100707.41;;;11.06;43.91
22440;BME280;11387;51.612;7.210;2023-03-16T11:56:04;100711.06;;;11.62;42.82
22440;BME280;11387;51.612;7.210;2023-03-16T11:58:49;100710.81;;;11.91;43.03
22440;BME280;11387;51.612;7.210;2023-03-16T12:01:29;100715.97;;;11.19;43.38
22440;BME280;11387;51.612;7.210;2023-03-16T12:04:18;100710.56;;;12.64;40.55
22440;BME280;11387;51.612;7.210;2023-03-16T12:07:01;100699.72;;;14.14;37.24
22440;BME280;11387;51.612;7.210;2023-03-16T12:09:48;100691.31;;;16.37;33.24
22440;BME280;11387;51.612;7.210;2023-03-16T12:12:28;100679.88;;;17.34;31.37
22440;BME280;11387;51.612;7.210;2023-03-16T12:15:11;100684.31;;;16.39;31.69
22440;BME280;11387;51.612;7.210;2023-03-16T12:17:45;100683.47;;;14.78;33.86
22440;BME280;11387;51.612;7.210;2023-03-16T12:20:20;100684.75;;;15.53;33.62
22440;BME280;11387;51.612;7.210;2023-03-16T12:22:55;100663.84;;;15.52;33.15
22440;BME280;11387;51.612;7.210;2023-03-16T12:25:29;100667.84;;;15.63;33.12
22440;BME280;11387;51.612;7.210;2023-03-16T12:28:02;100671.38;;;13.96;35.22
22440;BME280;11387;51.612;7.210;2023-03-16T12:30:39;100638.06;;;13.98;35.89
22440;BME280;11387;51.612;7.210;2023-03-16T12:33:14;100642.25;;;13.95;35.54
22440;BME280;11387;51.612;7.210;2023-03-16T12:35:50;100624.09;;;13.68;36.72
22440;BME280;11387;51.612;7.210;2023-03-16T12:38:32;100629.25;;;12.99;37.71
22440;BME280;11387;51.612;7.210;2023-03-16T12:41:17;100612.47;;;13.01;37.49
22440;BME280;11387;51.612;7.210;2023-03-16T12:44:00;100621.84;;;11.69;39.64
22440;BME280;11387;51.612;7.210;2023-03-16T12:46:40;100621.22;;;12.00;40.06
22440;BME280;11387;51.612;7.210;2023-03-16T12:49:10;100620.94;;;11.33;41.07
22440;BME280;11387;51.612;7.210;2023-03-16T12:51:41;100618.00;;;11.43;41.42
22440;BME280;11387;51.612;7.210;2023-03-16T12:54:20;100608.03;;;10.92;41.93
22440;BME280;11387;51.612;7.210;2023-03-16T12:56:51;100595.69;;;10.76;41.92
22440;BME280;11387;51.612;7.210;2023-03-16T12:59:23;100603.75;;;10.86;42.01
22440;BME280;11387;51.612;7.210;2023-03-16T13:01:56;100592.84;;;11.00;41.90
22440;BME280;11387;51.612;7.210;2023-03-16T13:04:30;100589.06;;;10.96;41.75
22440;BME280;11387;51.612;7.210;2023-03-16T13:07:06;100589.53;;;10.84;41.28
22440;BME280;11387;51.612;7.210;2023-03-16T13:09:43;100590.00;;;11.19;40.89
22440;BME280;11387;51.612;7.210;2023-03-16T13:12:28;100584.50;;;11.32;41.15
22440;BME280;11387;51.612;7.210;2023-03-16T13:14:59;100576.16;;;11.65;40.76
22440;BME280;11387;51.612;7.210;2023-03-16T13:17:29;100561.09;;;12.03;40.06
22440;BME280;11387;51.612;7.210;2023-03-16T13:20:02;100568.91;;;11.96;39.70
22440;BME280;11387;51.612;7.210;2023-03-16T13:22:44;100579.84;;;11.88;39.98
22440;BME280;11387;51.612;7.210;2023-03-16T13:25:17;100581.47;;;11.61;39.82